Time,TemperatureF,DewpointF,PressureIn,WindDirection,WindDirectionDegrees,WindSpeedMPH,WindSpeedGustMPH,Humidity,HourlyPrecipIn,Conditions,Clouds,dailyrainin,SoftwareType,DateUTC
2019-12-12 00:01:01,40.5,37.4,29.72,SSE,158,7.2,7.2,89,0,,,0,meteobridge,2019-12-11 23:01:01,
2019-12-12 00:05:01,40.5,37.4,29.72,East,90,4.5,4.5,89,0,,,0,meteobridge,2019-12-11 23:05:01,
2019-12-12 00:11:01,40.6,37.6,29.72,SE,135,4.3,5.8,89,0,,,0,meteobridge,2019-12-11 23:11:01,
2019-12-12 00:15:01,40.6,37.6,29.72,ESE,113,5.4,5.4,89,0,,,0,meteobridge,2019-12-11 23:15:01,
2019-12-12 00:21:01,40.6,37.6,29.72,SSE,158,5.4,5.4,89,0,,,0,meteobridge,2019-12-11 23:21:01,
2019-12-12 00:25:01,40.6,37.6,29.72,SE,135,4.5,4.5,89,0,,,0,meteobridge,2019-12-11 23:25:01,
2019-12-12 00:31:01,40.8,37.8,29.72,SE,135,4.7,4.7,89,0,,,0,meteobridge,2019-12-11 23:31:01,
2019-12-12 00:35:01,40.8,37.8,29.72,SE,135,6,6,89,0,,,0,meteobridge,2019-12-11 23:35:01,
2019-12-12 00:41:01,40.8,37.8,29.72,SSE,158,3.1,7.6,89,0,,,0,meteobridge,2019-12-11 23:41:01,
2019-12-12 00:45:01,40.8,37.8,29.72,SW,225,7.6,7.6,89,0,,,0,meteobridge,2019-12-11 23:45:01,
2019-12-12 00:51:01,41,37.9,29.72,SSE,158,6.9,6.9,89,0,,,0,meteobridge,2019-12-11 23:51:01,
2019-12-12 00:55:01,41,37.9,29.70,SE,135,6.7,6.7,89,0,,,0,meteobridge,2019-12-11 23:55:01,
2019-12-12 01:01:01,41,37.9,29.70,SSW,203,3.4,3.4,89,0,,,0,meteobridge,2019-12-12 00:01:01,
2019-12-12 01:05:01,41,37.9,29.70,SSE,158,8.7,8.7,89,0,,,0,meteobridge,2019-12-12 00:05:01,
2019-12-12 01:11:30,41,37.9,29.70,SSE,158,4.7,4.7,89,0,,,0,meteobridge,2019-12-12 00:11:30,
2019-12-12 01:15:30,41.2,38.1,29.70,SE,135,4.3,4.3,89,0,,,0,meteobridge,2019-12-12 00:15:30,
2019-12-12 01:22:01,41.2,38.1,29.70,South,180,6.7,6.7,89,0,,,0,meteobridge,2019-12-12 00:22:01,
2019-12-12 01:26:01,41.2,38.1,29.70,ESE,113,6,6,89,0,,,0,meteobridge,2019-12-12 00:26:01,
2019-12-12 01:30:01,41.2,38.1,29.70,SSE,158,3.8,3.8,89,0,,,0,meteobridge,2019-12-12 00:30:01,
2019-12-12 01:36:01,41.2,38.1,29.70,SSE,158,4.3,4.3,89,0,,,0,meteobridge,2019-12-12 00:36:01,
2019-12-12 01:40:01,41.2,38.1,29.70,SE,135,6.9,6.9,89,0,,,0,meteobridge,2019-12-12 00:40:01,
2019-12-12 01:46:29,41.2,38.1,29.70,SE,135,3.8,4.3,89,0,,,0,meteobridge,2019-12-12 00:46:29,
2019-12-12 01:50:30,41.2,38.1,29.70,SE,135,9.2,9.2,89,0,,,0,meteobridge,2019-12-12 00:50:30,
2019-12-12 01:56:30,41.2,38.1,29.69,SSE,158,5.1,5.1,89,0,,,0,meteobridge,2019-12-12 00:56:30,
2019-12-12 02:00:36,41.2,38.1,29.69,SSE,158,7.8,7.8,89,0,,,0,meteobridge,2019-12-12 01:00:36,
2019-12-12 02:05:01,41.2,38.1,29.69,ESE,113,9.2,9.2,89,0,,,0,meteobridge,2019-12-12 01:05:01,
2019-12-12 02:11:01,41.4,38.3,29.69,SE,135,4.7,6,89,0,,,0,meteobridge,2019-12-12 01:11:01,
2019-12-12 02:15:01,41.4,38.3,29.69,WSW,248,11.6,11.6,89,0,,,0,meteobridge,2019-12-12 01:15:01,
2019-12-12 02:21:01,41.4,38.3,29.69,SSE,158,5.4,5.6,89,0,,,0,meteobridge,2019-12-12 01:21:01,
2019-12-12 02:25:01,41.4,38.3,29.69,SSE,158,7.6,7.6,89,0,,,0,meteobridge,2019-12-12 01:25:01,
2019-12-12 02:31:01,41.4,38.1,29.69,SW,225,4.5,4.5,88,0,,,0,meteobridge,2019-12-12 01:31:01,
2019-12-12 02:35:01,41.4,38.1,29.69,SE,135,8.1,8.1,88,0,,,0,meteobridge,2019-12-12 01:35:01,
2019-12-12 02:41:30,41.4,38.1,29.69,NNE,23,3.6,3.6,88,0,,,0,meteobridge,2019-12-12 01:41:30,
2019-12-12 02:46:01,41.4,38.1,29.69,SSE,158,5.1,5.6,88,0,,,0,meteobridge,2019-12-12 01:46:01,
2019-12-12 02:50:01,41.4,38.1,29.69,SSE,158,4.3,4.3,88,0,,,0,meteobridge,2019-12-12 01:50:01,
2019-12-12 02:56:01,41.4,38.1,29.68,SSE,158,4.7,4.7,88,0,,,0,meteobridge,2019-12-12 01:56:01,
2019-12-12 03:00:01,41.4,38.1,29.68,SE,135,4.3,4.3,88,0,,,0,meteobridge,2019-12-12 02:00:01,
2019-12-12 03:06:01,41.4,38.1,29.68,WSW,248,3.8,3.8,88,0,,,0,meteobridge,2019-12-12 02:06:01,
2019-12-12 03:10:01,41.2,37.9,29.68,SSE,158,5.1,5.1,88,0,,,0,meteobridge,2019-12-12 02:10:01,
2019-12-12 03:16:01,41.2,37.9,29.67,SE,135,7.6,7.6,88,0,,,0,meteobridge,2019-12-12 02:16:01,
2019-12-12 03:20:01,41.2,37.9,29.67,SSE,158,3.1,6.7,88,0,,,0,meteobridge,2019-12-12 02:20:01,
2019-12-12 03:26:01,41.2,37.9,29.67,South,180,10.7,10.7,88,0,,,0,meteobridge,2019-12-12 02:26:01,
2019-12-12 03:30:01,41.2,37.9,29.67,SE,135,8.5,8.5,88,0,,,0,meteobridge,2019-12-12 02:30:01,
2019-12-12 03:36:30,41.2,37.9,29.67,SSE,158,3.1,3.1,88,0,,,0,meteobridge,2019-12-12 02:36:30,
2019-12-12 03:40:30,41.2,37.9,29.67,SE,135,6.7,6.7,88,0,,,0,meteobridge,2019-12-12 02:40:30,
2019-12-12 03:45:01,41.2,37.9,29.67,SE,135,5.4,5.4,88,0,,,0,meteobridge,2019-12-12 02:45:01,
2019-12-12 03:51:01,41,37.8,29.67,SE,135,5.8,8.3,88,0,,,0,meteobridge,2019-12-12 02:51:01,
2019-12-12 03:55:01,41,37.8,29.67,SE,135,6.7,7.8,88,0,,,0,meteobridge,2019-12-12 02:55:01,
2019-12-12 04:01:01,41,37.8,29.67,SSE,158,3.1,6.7,88,0,,,0,meteobridge,2019-12-12 03:01:01,
2019-12-12 04:05:01,41,37.8,29.67,South,180,9.2,9.2,88,0,,,0,meteobridge,2019-12-12 03:05:01,
2019-12-12 04:11:01,41,37.8,29.67,SE,135,3.6,3.6,88,0,,,0,meteobridge,2019-12-12 03:11:01,
2019-12-12 04:15:01,40.8,37.6,29.67,ESE,113,5.1,5.1,88,0,,,0,meteobridge,2019-12-12 03:15:01,
2019-12-12 04:21:30,40.8,37.6,29.67,SE,135,4.7,4.7,88,0,,,0,meteobridge,2019-12-12 03:21:30,
2019-12-12 04:25:30,40.8,37.6,29.67,South,180,8.5,8.5,88,0,,,0,meteobridge,2019-12-12 03:25:30,
2019-12-12 04:31:30,40.8,37.6,29.67,NNW,338,5.1,5.1,88,0,,,0,meteobridge,2019-12-12 03:31:30,
2019-12-12 04:35:30,40.8,37.6,29.67,South,180,6.7,6.7,88,0,,,0,meteobridge,2019-12-12 03:35:30,
2019-12-12 04:41:30,40.8,37.6,29.67,South,180,6,6,88,0,,,0,meteobridge,2019-12-12 03:41:30,
2019-12-12 04:45:31,40.8,37.6,29.67,SSE,158,5.6,5.6,88,0,,,0,meteobridge,2019-12-12 03:45:31,
2019-12-12 04:50:01,40.8,37.6,29.67,South,180,8.7,8.7,88,0,,,0,meteobridge,2019-12-12 03:50:01,
2019-12-12 04:56:30,40.8,37.6,29.67,SE,135,4.7,4.7,88,0,,,0,meteobridge,2019-12-12 03:56:30,
2019-12-12 05:01:29,40.8,37.6,29.67,South,180,6,6,88,0,,,0,meteobridge,2019-12-12 04:01:29,
2019-12-12 05:05:30,40.8,37.2,29.67,ENE,68,3.8,3.8,87,0,,,0,meteobridge,2019-12-12 04:05:30,
2019-12-12 05:11:57,40.8,37.2,29.67,South,180,8.7,8.7,87,0,,,0,meteobridge,2019-12-12 04:11:57,
2019-12-12 05:16:01,40.6,37,29.66,SSE,158,4.9,4.9,87,0,,,0,meteobridge,2019-12-12 04:16:01,
2019-12-12 05:20:01,40.6,37,29.66,East,90,6.7,6.7,87,0,,,0,meteobridge,2019-12-12 04:20:01,
2019-12-12 05:26:01,40.6,37,29.66,SSE,158,8.7,8.7,87,0,,,0,meteobridge,2019-12-12 04:26:01,
2019-12-12 05:30:01,40.6,37,29.66,South,180,9.2,9.2,87,0,,,0,meteobridge,2019-12-12 04:30:01,
2019-12-12 05:36:01,40.6,37,29.66,South,180,6.9,6.9,87,0,,,0,meteobridge,2019-12-12 04:36:01,
2019-12-12 05:40:01,40.6,37,29.66,SSW,203,4.5,4.5,87,0,,,0,meteobridge,2019-12-12 04:40:01,
2019-12-12 05:46:01,40.5,36.9,29.66,SSE,158,6.7,6.7,87,0,,,0,meteobridge,2019-12-12 04:46:01,
2019-12-12 05:50:01,40.5,36.9,29.66,WSW,248,7.2,7.2,87,0,,,0,meteobridge,2019-12-12 04:50:01,
2019-12-12 05:56:01,40.5,36.9,29.67,SW,225,5.4,5.4,87,0,,,0,meteobridge,2019-12-12 04:56:01,
2019-12-12 06:00:01,40.5,36.9,29.67,WSW,248,4.3,9.2,87,0,,,0,meteobridge,2019-12-12 05:00:01,
2019-12-12 06:06:01,40.5,36.9,29.67,SSE,158,5.1,5.1,87,0,,,0,meteobridge,2019-12-12 05:06:01,
2019-12-12 06:10:01,40.6,37,29.67,South,180,5.4,7.6,87,0,,,0,meteobridge,2019-12-12 05:10:01,
2019-12-12 06:16:01,40.6,37,29.66,South,180,5.8,5.8,87,0,,,0,meteobridge,2019-12-12 05:16:01,
2019-12-12 06:20:01,40.6,37,29.66,South,180,4.3,4.3,87,0,,,0,meteobridge,2019-12-12 05:20:01,
2019-12-12 06:26:01,40.6,37,29.66,SSE,158,5.1,5.1,87,0,,,0,meteobridge,2019-12-12 05:26:01,
2019-12-12 06:30:03,40.6,37,29.66,ESE,113,3.8,3.8,87,0,,,0,meteobridge,2019-12-12 05:30:03,
2019-12-12 06:36:30,40.6,37,29.65,SE,135,3.1,3.1,87,0,,,0,meteobridge,2019-12-12 05:36:30,
2019-12-12 06:40:30,40.6,37,29.65,South,180,6.9,6.9,87,0,,,0,meteobridge,2019-12-12 05:40:30,
2019-12-12 06:47:01,40.6,37,29.65,SE,135,4.5,4.5,87,0,,,0,meteobridge,2019-12-12 05:47:01,
2019-12-12 06:51:01,40.6,37,29.65,SSE,158,5.8,5.8,87,0,,,0,meteobridge,2019-12-12 05:51:01,
2019-12-12 06:55:01,40.6,37,29.65,South,180,4.7,4.7,87,0,,,0,meteobridge,2019-12-12 05:55:01,
2019-12-12 07:02:00,40.6,37,29.65,South,180,4.7,4.7,87,0,,,0,meteobridge,2019-12-12 06:02:00,
2019-12-12 07:06:01,40.6,37,29.65,South,180,4.7,4.7,87,0,,,0,meteobridge,2019-12-12 06:06:01,
2019-12-12 07:10:01,40.6,37,29.65,SE,135,6,6,87,0,,,0,meteobridge,2019-12-12 06:10:01,
2019-12-12 07:16:01,40.6,37,29.66,South,180,7.8,7.8,87,0,,,0,meteobridge,2019-12-12 06:16:01,
2019-12-12 07:20:01,40.6,37,29.66,ENE,68,2.9,2.9,87,0,,,0,meteobridge,2019-12-12 06:20:01,
2019-12-12 07:26:01,40.6,37,29.66,NE,45,6.9,6.9,87,0,,,0,meteobridge,2019-12-12 06:26:01,
2019-12-12 07:30:01,40.5,36.9,29.66,South,180,5.1,8.7,87,0,,,0,meteobridge,2019-12-12 06:30:01,
2019-12-12 07:36:01,40.5,36.9,29.67,SSE,158,7.6,7.6,87,0,,,0,meteobridge,2019-12-12 06:36:01,
2019-12-12 07:40:01,40.5,36.9,29.67,SSW,203,7.4,8.5,87,0,,,0,meteobridge,2019-12-12 06:40:01,
2019-12-12 07:46:01,40.5,36.9,29.67,South,180,5.1,5.1,87,0,,,0,meteobridge,2019-12-12 06:46:01,
2019-12-12 07:50:02,40.5,36.9,29.67,South,180,11.2,11.2,87,0,,,0,meteobridge,2019-12-12 06:50:02,
2019-12-12 07:56:30,40.5,36.9,29.67,SSW,203,5.8,7.6,87,0,,,0,meteobridge,2019-12-12 06:56:30,
2019-12-12 08:00:30,40.3,36.7,29.67,South,180,11.6,15.9,87,0,,,0,meteobridge,2019-12-12 07:00:30,
2019-12-12 08:05:01,40.3,36.7,29.67,South,180,9.4,9.4,87,0,,,0,meteobridge,2019-12-12 07:05:01,
2019-12-12 08:11:30,40.3,36.7,29.67,ESE,113,6.5,6.5,87,0,,,0,meteobridge,2019-12-12 07:11:30,
2019-12-12 08:15:30,40.3,36.7,29.67,South,180,11.2,11.2,87,0,,,0,meteobridge,2019-12-12 07:15:30,
2019-12-12 08:21:30,40.3,36.7,29.67,South,180,8.9,8.9,87,0,,,0,meteobridge,2019-12-12 07:21:30,
2019-12-12 08:26:01,40.3,36.7,29.67,WSW,248,3.6,4.5,87,0,,,0,meteobridge,2019-12-12 07:26:01,
2019-12-12 08:30:01,40.3,36.7,29.67,SE,135,8.3,8.3,87,0,,,0,meteobridge,2019-12-12 07:30:01,
2019-12-12 08:36:01,40.1,36.5,29.66,SSE,158,5.4,5.4,87,0,,,0,meteobridge,2019-12-12 07:36:01,
2019-12-12 08:40:01,40.1,36.5,29.66,SSW,203,6.7,6.7,87,0,,,0,meteobridge,2019-12-12 07:40:01,
2019-12-12 08:46:01,39.9,36.3,29.66,South,180,5.1,5.1,87,0,,,0,meteobridge,2019-12-12 07:46:01,
2019-12-12 08:50:01,39.7,36.1,29.66,SSE,158,2.9,2.9,87,0,,,0,meteobridge,2019-12-12 07:50:01,
2019-12-12 08:56:01,39.4,35.8,29.67,SSW,203,2.2,4,87,0,,,0,meteobridge,2019-12-12 07:56:01,
2019-12-12 09:00:01,39.2,35.6,29.67,SSE,158,3.4,5.4,87,0,,,0,meteobridge,2019-12-12 08:00:01,
2019-12-12 09:06:01,39.2,35.6,29.67,SSE,158,4.9,4.9,87,0,,,0,meteobridge,2019-12-12 08:06:01,
2019-12-12 09:10:01,39,35.8,29.67,SE,135,7.2,7.2,88,0,,,0,meteobridge,2019-12-12 08:10:01,
2019-12-12 09:16:01,39,35.8,29.67,ESE,113,5.4,5.4,88,0,,,0,meteobridge,2019-12-12 08:16:01,
2019-12-12 09:20:01,39,35.8,29.67,SSE,158,2.7,2.7,88,0,,,0,meteobridge,2019-12-12 08:20:01,
2019-12-12 09:26:01,39,35.8,29.67,South,180,5.6,5.6,88,0,,,0,meteobridge,2019-12-12 08:26:01,
2019-12-12 09:30:01,38.8,35.6,29.67,SSE,158,6,6,88,0,,,0,meteobridge,2019-12-12 08:30:01,
2019-12-12 09:36:01,38.8,35.6,29.67,South,180,3.4,3.4,88,0,,,0,meteobridge,2019-12-12 08:36:01,
2019-12-12 09:40:01,38.8,35.6,29.67,ENE,68,4,4,88,0,,,0,meteobridge,2019-12-12 08:40:01,
2019-12-12 09:46:01,38.7,35.4,29.67,East,90,5.8,6.7,88,0,,,0,meteobridge,2019-12-12 08:46:01,
2019-12-12 09:50:01,38.7,35.4,29.67,SE,135,5.8,5.8,88,0,,,0,meteobridge,2019-12-12 08:50:01,
2019-12-12 09:56:01,38.7,35.4,29.67,SE,135,7.8,7.8,88,0,,,0,meteobridge,2019-12-12 08:56:01,
2019-12-12 10:00:02,38.8,35.6,29.67,SE,135,5.8,5.8,88,0,,,0,meteobridge,2019-12-12 09:00:02,
2019-12-12 10:06:30,38.8,36,29.67,SSE,158,3.6,11.2,89,0,,,0,meteobridge,2019-12-12 09:06:30,
2019-12-12 10:22:01,39,36.1,29.67,ESE,113,4.9,7.4,89,0,,,0,meteobridge,2019-12-12 09:22:01,
2019-12-12 10:26:01,39.2,36.3,29.67,SE,135,9.2,9.2,89,0,,,0,meteobridge,2019-12-12 09:26:01,
2019-12-12 10:30:04,39.4,36.5,29.67,South,180,7.2,11,89,0,,,0,meteobridge,2019-12-12 09:30:04,
2019-12-12 10:36:30,39.4,36.5,29.66,SSE,158,2.2,4.9,89,0,,,0,meteobridge,2019-12-12 09:36:30,
2019-12-12 10:40:30,39.4,36.5,29.66,SSE,158,11.9,11.9,89,0,,,0,meteobridge,2019-12-12 09:40:30,
2019-12-12 10:46:30,39.4,36.1,29.66,SE,135,6,6,88,0,,,0,meteobridge,2019-12-12 09:46:30,
2019-12-12 10:50:30,39.6,36.3,29.66,SE,135,9.2,9.2,88,0,,,0,meteobridge,2019-12-12 09:50:30,
2019-12-12 10:55:01,39.6,36.3,29.66,ESE,113,6.5,8.7,88,0,,,0,meteobridge,2019-12-12 09:55:01,
2019-12-12 11:01:01,39.6,36.3,29.66,SE,135,8.9,12.5,88,0,,,0,meteobridge,2019-12-12 10:01:01,
2019-12-12 11:05:02,39.7,36.5,29.66,SE,135,8.7,8.7,88,0,,,0,meteobridge,2019-12-12 10:05:02,
2019-12-12 11:12:01,39.7,36.5,29.66,NNE,23,9.8,9.8,88,0,,,0,meteobridge,2019-12-12 10:12:01,
2019-12-12 11:16:01,39.9,36.7,29.65,SSE,158,9.4,9.4,88,0,,,0,meteobridge,2019-12-12 10:16:01,
2019-12-12 11:20:01,39.9,36.7,29.65,South,180,8.7,11.2,88,0,,,0,meteobridge,2019-12-12 10:20:01,
2019-12-12 11:26:01,40.1,36.5,29.65,SE,135,9.8,9.8,87,0,,,0,meteobridge,2019-12-12 10:26:01,
2019-12-12 11:30:01,40.1,36.5,29.65,SSE,158,6,6,87,0,,,0,meteobridge,2019-12-12 10:30:01,
2019-12-12 11:36:01,40.1,36.5,29.64,SSW,203,5.8,5.8,87,0,,,0,meteobridge,2019-12-12 10:36:01,
2019-12-12 11:40:01,40.3,36.7,29.64,ESE,113,11.9,11.9,87,0,,,0,meteobridge,2019-12-12 10:40:01,
2019-12-12 11:46:01,40.3,36.5,29.64,SE,135,6.9,6.9,86,0,,,0,meteobridge,2019-12-12 10:46:01,
2019-12-12 11:50:01,40.3,36.5,29.64,ESE,113,8.1,14.5,86,0,,,0,meteobridge,2019-12-12 10:50:01,
2019-12-12 11:56:01,40.1,36,29.64,SSE,158,8.9,8.9,85,0,,,0,meteobridge,2019-12-12 10:56:01,
2019-12-12 12:00:01,40.1,36,29.64,SE,135,3.8,15,85,0,,,0,meteobridge,2019-12-12 11:00:01,
2019-12-12 12:06:01,40.1,36,29.64,South,180,5.8,8.5,85,0,,,0,meteobridge,2019-12-12 11:06:01,
2019-12-12 12:10:01,40.1,36,29.64,South,180,7.6,7.6,85,0,,,0,meteobridge,2019-12-12 11:10:01,
2019-12-12 12:16:01,40.1,36,29.63,South,180,10.7,10.7,85,0,,,0,meteobridge,2019-12-12 11:16:01,
2019-12-12 12:20:01,40.1,36,29.63,NNW,338,11.4,11.4,85,0,,,0,meteobridge,2019-12-12 11:20:01,
2019-12-12 12:26:01,40.3,36.1,29.63,SSE,158,6.5,6.5,85,0,,,0,meteobridge,2019-12-12 11:26:01,
2019-12-12 12:30:01,40.6,36.5,29.63,South,180,4.9,4.9,85,0,,,0,meteobridge,2019-12-12 11:30:01,
2019-12-12 12:36:02,40.8,36.3,29.62,SSE,158,7.2,8.1,84,0,,,0,meteobridge,2019-12-12 11:36:02,
2019-12-12 12:40:30,40.8,36.3,29.62,South,180,4.5,6.9,84,0,,,0,meteobridge,2019-12-12 11:40:30,
2019-12-12 12:47:01,40.6,36.1,29.62,SSE,158,2.7,2.7,84,0,,,0,meteobridge,2019-12-12 11:47:01,
2019-12-12 12:51:01,40.6,36.1,29.62,SE,135,5.4,5.4,84,0,,,0,meteobridge,2019-12-12 11:51:01,
2019-12-12 12:55:01,40.8,36.3,29.62,SW,225,3.8,3.8,84,0,,,0,meteobridge,2019-12-12 11:55:01,
2019-12-12 13:01:01,40.8,36.3,29.62,ESE,113,6.9,6.9,84,0,,,0,meteobridge,2019-12-12 12:01:01,
2019-12-12 13:05:01,40.8,36.3,29.62,South,180,11,11,84,0,,,0,meteobridge,2019-12-12 12:05:01,
2019-12-12 13:11:01,40.8,36.1,29.62,SE,135,13.2,14.1,83,0,,,0,meteobridge,2019-12-12 12:11:01,
2019-12-12 13:15:01,40.8,36.1,29.61,SE,135,6,6,83,0,,,0,meteobridge,2019-12-12 12:15:01,
2019-12-12 13:21:01,40.6,36,29.61,SE,135,9.4,9.4,83,0,,,0,meteobridge,2019-12-12 12:21:01,
2019-12-12 13:25:01,40.8,36.1,29.61,East,90,7.6,7.6,83,0,,,0,meteobridge,2019-12-12 12:25:01,
2019-12-12 13:31:01,41,36,29.61,South,180,6.3,6.3,82,0,,,0,meteobridge,2019-12-12 12:31:01,
2019-12-12 13:35:01,40.8,35.8,29.60,South,180,7.6,7.6,82,0,,,0,meteobridge,2019-12-12 12:35:01,
2019-12-12 13:41:01,40.6,35.2,29.60,SE,135,13,13,81,0,,,0,meteobridge,2019-12-12 12:41:01,
2019-12-12 13:45:01,40.6,35.2,29.60,NNE,23,4.3,11.2,81,0,,,0,meteobridge,2019-12-12 12:45:01,
2019-12-12 13:51:01,40.6,34.9,29.60,SE,135,11.2,11.2,80,0,,,0,meteobridge,2019-12-12 12:51:01,
2019-12-12 13:55:01,40.6,34.3,29.59,SE,135,8.3,13.4,78,0,,,0,meteobridge,2019-12-12 12:55:01,
2019-12-12 14:01:01,41,35.1,29.59,SSE,158,3.8,7.4,79,0,,,0,meteobridge,2019-12-12 13:01:01,
2019-12-12 14:05:01,41.2,35.2,29.59,SE,135,10.3,10.3,79,0,,,0,meteobridge,2019-12-12 13:05:01,
2019-12-12 14:11:01,41.2,35.2,29.59,South,180,5.4,5.4,79,0,,,0,meteobridge,2019-12-12 13:11:01,
2019-12-12 14:15:01,41,35.1,29.57,SE,135,11.4,11.4,79,0,,,0,meteobridge,2019-12-12 13:15:01,
2019-12-12 14:21:01,40.8,34.9,29.57,SE,135,6.7,6.7,79,0,,,0,meteobridge,2019-12-12 13:21:01,
2019-12-12 14:25:01,40.8,34.9,29.57,SW,225,5.4,5.4,79,0,,,0,meteobridge,2019-12-12 13:25:01,
2019-12-12 14:31:01,41,35.1,29.57,SE,135,9.8,9.8,79,0,,,0,meteobridge,2019-12-12 13:31:01,
2019-12-12 14:35:01,41,34.7,29.57,SSE,158,5.4,6.7,78,0,,,0,meteobridge,2019-12-12 13:35:01,
2019-12-12 14:41:01,41,34.7,29.57,SSE,158,7.8,10.7,78,0,,,0,meteobridge,2019-12-12 13:41:01,
2019-12-12 14:45:01,40.8,34.9,29.57,SE,135,9.2,9.2,79,0,,,0,meteobridge,2019-12-12 13:45:01,
2019-12-12 14:51:01,40.8,34.9,29.57,ESE,113,4,8.3,79,0,,,0,meteobridge,2019-12-12 13:51:01,
2019-12-12 14:55:01,40.8,34.9,29.56,South,180,7.2,7.2,79,0,,,0,meteobridge,2019-12-12 13:55:01,
2019-12-12 15:01:01,40.8,34.9,29.56,SSE,158,9.6,9.6,79,0,,,0,meteobridge,2019-12-12 14:01:01,
2019-12-12 15:05:01,40.6,34.7,29.56,ESE,113,8.9,8.9,79,0,,,0,meteobridge,2019-12-12 14:05:01,
2019-12-12 15:11:01,40.5,34.2,29.56,SSE,158,10.5,10.5,78,0,,,0,meteobridge,2019-12-12 14:11:01,
2019-12-12 15:15:01,40.5,34.2,29.54,SSW,203,9.4,9.4,78,0,,,0,meteobridge,2019-12-12 14:15:01,
2019-12-12 15:21:01,40.3,34,29.54,SE,135,11.9,12.8,78,0,,,0,meteobridge,2019-12-12 14:21:01,
2019-12-12 15:25:01,40.3,34,29.54,SSE,158,5.4,11.6,78,0,,,0,meteobridge,2019-12-12 14:25:01,
2019-12-12 15:31:01,40.1,33.8,29.54,SE,135,6.5,7.6,78,0,,,0,meteobridge,2019-12-12 14:31:01,
2019-12-12 15:35:01,39.9,33.6,29.54,SE,135,10.1,10.1,78,0,,,0,meteobridge,2019-12-12 14:35:01,
2019-12-12 15:41:01,39.9,33.6,29.54,South,180,5.1,5.1,78,0,,,0,meteobridge,2019-12-12 14:41:01,
2019-12-12 15:45:01,39.9,33.6,29.54,SSE,158,9.6,9.6,78,0,,,0,meteobridge,2019-12-12 14:45:01,
2019-12-12 15:51:01,39.9,34,29.54,SE,135,3.4,3.4,79,0,,,0,meteobridge,2019-12-12 14:51:01,
2019-12-12 15:55:01,39.7,33.8,29.52,SSE,158,5.1,5.1,79,0,,,0,meteobridge,2019-12-12 14:55:01,
2019-12-12 16:01:01,39.6,33.6,29.52,ENE,68,6.9,6.9,79,0,,,0,meteobridge,2019-12-12 15:01:01,
2019-12-12 16:05:01,39.6,33.6,29.52,ESE,113,2.2,2.2,79,0,,,0,meteobridge,2019-12-12 15:05:01,
2019-12-12 16:11:01,39.2,33.3,29.52,East,90,4.5,5.6,79,0,,,0,meteobridge,2019-12-12 15:11:01,
2019-12-12 16:15:01,39.2,33.6,29.51,SE,135,9.2,9.2,80,0,,,0,meteobridge,2019-12-12 15:15:01,
2019-12-12 16:21:01,39,33.4,29.51,East,90,3.8,6.3,80,0,,,0,meteobridge,2019-12-12 15:21:01,
2019-12-12 16:25:01,39,33.4,29.51,East,90,4.3,4.3,80,0,,,0,meteobridge,2019-12-12 15:25:01,
2019-12-12 16:31:01,39,33.4,29.51,SE,135,6,6,80,0,,,0,meteobridge,2019-12-12 15:31:01,
2019-12-12 16:35:01,38.8,33.3,29.50,ESE,113,4.5,4.5,80,0,,,0,meteobridge,2019-12-12 15:35:01,
2019-12-12 16:41:01,38.7,33.1,29.50,SE,135,4.3,4.3,80,0,,,0,meteobridge,2019-12-12 15:41:01,
2019-12-12 16:45:01,38.5,33.1,29.50,ESE,113,4.5,4.5,81,0,,,0,meteobridge,2019-12-12 15:45:01,
2019-12-12 16:51:01,38.5,33.1,29.50,East,90,3.8,3.8,81,0,,,0,meteobridge,2019-12-12 15:51:01,
2019-12-12 16:55:01,38.3,32.9,29.49,East,90,5.6,5.8,81,0,,,0,meteobridge,2019-12-12 15:55:01,
2019-12-12 17:01:01,38.1,32.7,29.49,ESE,113,4.9,4.9,81,0,,,0,meteobridge,2019-12-12 16:01:01,
2019-12-12 17:05:01,38.1,32.7,29.49,SE,135,5.1,5.1,81,0,,,0,meteobridge,2019-12-12 16:05:01,
2019-12-12 17:11:01,37.9,32.7,29.49,SE,135,4.9,4.9,81,0,,,0,meteobridge,2019-12-12 16:11:01,
2019-12-12 17:15:01,37.9,32.7,29.47,ESE,113,3.6,3.6,81,0,,,0,meteobridge,2019-12-12 16:15:01,
2019-12-12 17:21:01,37.8,32.7,29.47,ESE,113,5.4,5.4,82,0,,,0,meteobridge,2019-12-12 16:21:01,
2019-12-12 17:25:01,37.8,32.7,29.47,ESE,113,4.7,4.7,82,0,,,0,meteobridge,2019-12-12 16:25:01,
2019-12-12 17:31:01,37.8,32.7,29.47,ESE,113,6.3,6.3,82,0,,,0,meteobridge,2019-12-12 16:31:01,
2019-12-12 17:35:01,37.8,32.7,29.45,East,90,6.7,6.7,82,0,,,0,meteobridge,2019-12-12 16:35:01,
2019-12-12 17:41:01,37.6,32.5,29.45,SE,135,2.9,6,82,0,,,0,meteobridge,2019-12-12 16:41:01,
2019-12-12 17:45:01,37.6,32.5,29.45,ESE,113,6.7,6.7,82,0,,,0,meteobridge,2019-12-12 16:45:01,
2019-12-12 17:51:01,37.6,32.5,29.45,SE,135,4.9,7.8,82,0,,,0,meteobridge,2019-12-12 16:51:01,
2019-12-12 17:55:01,37.6,32.5,29.44,ENE,68,4.7,5.4,82,0,,,0,meteobridge,2019-12-12 16:55:01,
2019-12-12 18:01:01,37.6,32.5,29.44,SSE,158,3.6,3.6,82,0,,,0,meteobridge,2019-12-12 17:01:01,
2019-12-12 18:05:01,37.4,32.4,29.44,ENE,68,4.3,4.3,82,0,,,0,meteobridge,2019-12-12 17:05:01,
2019-12-12 18:11:01,37.4,32.4,29.44,ENE,68,2.9,2.9,82,0,,,0,meteobridge,2019-12-12 17:11:01,
2019-12-12 18:15:01,37.2,32.5,29.42,East,90,4.5,4.5,83,0,,,0,meteobridge,2019-12-12 17:15:01,
2019-12-12 18:21:01,37.2,32.5,29.42,East,90,5.4,5.4,83,0,,,0,meteobridge,2019-12-12 17:21:01,
2019-12-12 18:25:01,37,32.4,29.42,ENE,68,4.5,4.5,83,0,,,0,meteobridge,2019-12-12 17:25:01,
2019-12-12 18:31:01,37,32.4,29.42,ESE,113,4.7,4.7,83,0,,,0,meteobridge,2019-12-12 17:31:01,
2019-12-12 18:35:01,37,32.4,29.41,ESE,113,6.9,6.9,83,0,,,0,meteobridge,2019-12-12 17:35:01,
2019-12-12 18:41:01,37,32.4,29.41,ESE,113,6,6.3,83,0,,,0,meteobridge,2019-12-12 17:41:01,
2019-12-12 18:45:01,37,32.4,29.41,SE,135,4.3,4.3,83,0,,,0,meteobridge,2019-12-12 17:45:01,
2019-12-12 18:51:30,37,32.4,29.41,East,90,7.6,7.6,83,0,,,0,meteobridge,2019-12-12 17:51:30,
2019-12-12 18:55:42,37,32.4,29.40,ENE,68,3.6,3.6,83,0,,,0,meteobridge,2019-12-12 17:55:42,
2019-12-12 19:00:01,37.2,32.5,29.40,ESE,113,6.3,6.7,83,0,,,0,meteobridge,2019-12-12 18:00:01,
2019-12-12 19:06:01,37.2,32.5,29.40,ENE,68,6.5,6.5,83,0,,,0,meteobridge,2019-12-12 18:06:01,
2019-12-12 19:10:01,37.2,32.5,29.40,SE,135,3.8,3.8,83,0,,,0,meteobridge,2019-12-12 18:10:01,
2019-12-12 19:16:01,37.2,32.5,29.39,ENE,68,6.3,6.3,83,0,,,0,meteobridge,2019-12-12 18:16:01,
2019-12-12 19:20:01,37.2,32.5,29.39,ESE,113,6.3,6.3,83,0,,,0,meteobridge,2019-12-12 18:20:01,
2019-12-12 19:26:01,37.4,32.2,29.39,East,90,7.6,7.6,81,0,,,0,meteobridge,2019-12-12 18:26:01,
2019-12-12 19:30:01,37.4,32.2,29.39,East,90,6.5,7.6,81,0,,,0,meteobridge,2019-12-12 18:30:01,
2019-12-12 19:36:01,37.4,32.2,29.37,SE,135,6.9,6.9,81,0,,,0,meteobridge,2019-12-12 18:36:01,
2019-12-12 19:40:01,37.6,32.4,29.37,NE,45,5.8,6.9,81,0,,,0,meteobridge,2019-12-12 18:40:01,
2019-12-12 19:46:01,37.6,32,29.37,ENE,68,6.3,6.3,80,0,,,0,meteobridge,2019-12-12 18:46:01,
2019-12-12 19:50:01,37.8,32.2,29.37,ESE,113,8.9,8.9,80,0,,,0,meteobridge,2019-12-12 18:50:01,
2019-12-12 19:56:01,37.8,32.2,29.35,ESE,113,8.7,8.7,80,0,,,0,meteobridge,2019-12-12 18:56:01,
2019-12-12 20:00:01,37.9,32,29.35,ESE,113,9.2,9.2,79,0,,,0,meteobridge,2019-12-12 19:00:01,
2019-12-12 20:06:01,38.1,32.2,29.35,ESE,113,10.1,10.1,79,0,,,0,meteobridge,2019-12-12 19:06:01,
2019-12-12 20:10:01,37.9,32,29.35,ESE,113,6.9,6.9,79,0,,,0,meteobridge,2019-12-12 19:10:01,
2019-12-12 20:16:01,37.9,31.6,29.35,ESE,113,4.7,11.4,78,0,,,0,meteobridge,2019-12-12 19:16:01,
2019-12-12 20:20:01,37.9,31.6,29.35,East,90,8.1,8.1,78,0,,,0,meteobridge,2019-12-12 19:20:01,
2019-12-12 20:26:01,37.8,31.5,29.35,ENE,68,10.3,10.3,78,0,,,0,meteobridge,2019-12-12 19:26:01,
2019-12-12 20:30:01,37.8,31.5,29.35,SE,135,7.8,12.1,78,0,,,0,meteobridge,2019-12-12 19:30:01,
2019-12-12 20:36:01,37.8,31.5,29.33,NE,45,9.2,9.2,78,0,,,0,meteobridge,2019-12-12 19:36:01,
2019-12-12 20:40:01,37.6,31.3,29.33,North,0,4.9,4.9,78,0,,,0,meteobridge,2019-12-12 19:40:01,
2019-12-12 20:46:01,37.6,31.3,29.33,SE,135,7.6,7.6,78,0,,,0,meteobridge,2019-12-12 19:46:01,
2019-12-12 20:50:02,37.6,31.3,29.33,ESE,113,6.7,6.7,78,0,,,0,meteobridge,2019-12-12 19:50:02,
2019-12-12 20:56:30,37.4,31.1,29.33,SE,135,8.5,8.5,78,0,,,0,meteobridge,2019-12-12 19:56:30,
2019-12-12 21:00:30,37.4,31.1,29.33,ESE,113,4.7,4.7,78,0,,,0,meteobridge,2019-12-12 20:00:30,
2019-12-12 21:06:30,37.4,31.1,29.33,ESE,113,7.2,10.1,78,0,,,0,meteobridge,2019-12-12 20:06:30,
2019-12-12 21:10:30,37.2,30.9,29.33,ENE,68,16.3,16.3,78,0,,,0,meteobridge,2019-12-12 20:10:30,
2019-12-12 21:16:30,37.4,31.1,29.31,NNE,23,7.6,7.6,78,0,,,0,meteobridge,2019-12-12 20:16:30,
2019-12-12 21:20:30,37.2,30.9,29.31,ESE,113,10.1,10.1,78,0,,,0,meteobridge,2019-12-12 20:20:30,
2019-12-12 21:26:30,37.4,31.1,29.31,ESE,113,8.7,8.7,78,0,,,0,meteobridge,2019-12-12 20:26:30,
2019-12-12 21:31:01,37.4,30.9,29.31,ENE,68,10.1,10.1,77,0,,,0,meteobridge,2019-12-12 20:31:01,
2019-12-12 21:35:01,37.4,30.9,29.29,ENE,68,7.6,10.1,77,0,,,0,meteobridge,2019-12-12 20:35:01,
2019-12-12 21:41:01,37.6,31.1,29.29,ESE,113,7.8,7.8,77,0,,,0,meteobridge,2019-12-12 20:41:01,
2019-12-12 21:45:01,37.8,31.3,29.29,SE,135,11.4,11.4,77,0,,,0,meteobridge,2019-12-12 20:45:01,
2019-12-12 21:51:01,37.8,31.3,29.29,ESE,113,10.5,10.5,77,0,,,0,meteobridge,2019-12-12 20:51:01,
2019-12-12 21:55:01,37.8,31.3,29.27,NE,45,8.5,8.5,77,0,,,0,meteobridge,2019-12-12 20:55:01,
2019-12-12 22:01:01,37.8,31.3,29.27,SE,135,9.8,9.8,77,0,,,0,meteobridge,2019-12-12 21:01:01,
2019-12-12 22:05:01,37.8,31.3,29.27,ESE,113,9.6,9.6,77,0,,,0,meteobridge,2019-12-12 21:05:01,
2019-12-12 22:11:01,37.8,31.3,29.27,ESE,113,10.7,10.7,77,0,,,0,meteobridge,2019-12-12 21:11:01,
2019-12-12 22:15:01,37.8,31.3,29.26,ENE,68,7.2,7.6,77,0,,,0,meteobridge,2019-12-12 21:15:01,
2019-12-12 22:21:01,37.9,31.5,29.26,SE,135,13.2,13.2,77,0,,,0,meteobridge,2019-12-12 21:21:01,
2019-12-12 22:25:01,37.9,31.5,29.26,NNE,23,6.3,7.4,77,0,,,0,meteobridge,2019-12-12 21:25:01,
2019-12-12 22:31:01,37.9,31.5,29.26,ESE,113,9.6,9.6,77,0,,,0,meteobridge,2019-12-12 21:31:01,
2019-12-12 22:35:01,37.9,31.5,29.24,NE,45,8.5,8.5,77,0,,,0,meteobridge,2019-12-12 21:35:01,
2019-12-12 22:41:01,37.8,31.3,29.24,ESE,113,11.9,11.9,77,0,,,0,meteobridge,2019-12-12 21:41:01,
2019-12-12 22:45:01,37.8,31.3,29.24,SSE,158,6.9,6.9,77,0,,,0,meteobridge,2019-12-12 21:45:01,
2019-12-12 22:51:02,37.8,31.3,29.24,ESE,113,6.5,9.2,77,0,,,0,meteobridge,2019-12-12 21:51:02,
2019-12-12 22:55:29,37.6,31.1,29.22,ESE,113,9.2,9.2,77,0,,,0,meteobridge,2019-12-12 21:55:29,
2019-12-12 23:01:30,37.6,31.3,29.22,South,180,7.6,7.6,78,0,,,0,meteobridge,2019-12-12 22:01:30,
2019-12-12 23:05:30,37.6,31.3,29.22,East,90,10.7,10.7,78,0,,,0,meteobridge,2019-12-12 22:05:30,
2019-12-12 23:11:31,37.6,31.3,29.22,ENE,68,5.6,5.6,78,0,,,0,meteobridge,2019-12-12 22:11:31,
2019-12-12 23:16:01,37.4,31.1,29.21,SE,135,8.7,8.7,78,0,,,0,meteobridge,2019-12-12 22:16:01,
2019-12-12 23:20:01,37.6,31.3,29.21,ENE,68,8.7,8.7,78,0,,,0,meteobridge,2019-12-12 22:20:01,
2019-12-12 23:26:01,37.6,31.3,29.21,East,90,6.5,6.9,78,0,,,0,meteobridge,2019-12-12 22:26:01,
2019-12-12 23:30:01,37.6,31.3,29.21,ESE,113,8.3,8.3,78,0,,,0,meteobridge,2019-12-12 22:30:01,
2019-12-12 23:36:01,37.6,31.3,29.19,ENE,68,6.5,6.5,78,0,,,0,meteobridge,2019-12-12 22:36:01,
2019-12-12 23:40:01,37.6,31.3,29.19,ESE,113,8.7,8.7,78,0,,,0,meteobridge,2019-12-12 22:40:01,
2019-12-12 23:46:01,37.6,31.3,29.19,ESE,113,4.7,4.7,78,0,,,0,meteobridge,2019-12-12 22:46:01,
2019-12-12 23:50:01,37.6,31.3,29.19,SE,135,9.6,9.6,78,0,,,0,meteobridge,2019-12-12 22:50:01,
2019-12-12 23:56:01,37.6,31.3,29.17,SE,135,7.4,7.4,78,0,,,0,meteobridge,2019-12-12 22:56:01,